sensor_id;sensor_type;location;lat;lon;timestamp;P1;durP1;ratioP1;P2;durP2;ratioP2
30307;SDS011;17114;52.314;8.910;2024-02-16T11:36:58;7.00;;;3.50;;
30307;SDS011;17114;52.314;8.910;2024-02-16T11:39:26;9.63;;;2.90;;
30307;SDS011;17114;52.314;8.910;2024-02-16T11:42:00;7.45;;;3.10;;
30307;SDS011;17114;52.314;8.910;2024-02-16T11:44:37;6.38;;;2.90;;
30307;SDS011;17114;52.314;8.910;2024-02-16T11:47:07;7.90;;;3.10;;
30307;SDS011;17114;52.314;8.910;2024-02-16T11:49:44;5.10;;;2.85;;
30307;SDS011;17114;52.314;8.910;2024-02-16T11:52:11;6.20;;;2.50;;
30307;SDS011;17114;52.314;8.910;2024-02-16T11:54:38;8.65;;;2.88;;
30307;SDS011;17114;52.314;8.910;2024-02-16T11:57:05;9.15;;;3.38;;
30307;SDS011;17114;52.314;8.910;2024-02-16T11:59:32;10.52;;;3.22;;
30307;SDS011;17114;52.314;8.910;2024-02-16T12:02:00;9.07;;;3.22;;
30307;SDS011;17114;52.314;8.910;2024-02-16T12:04:27;8.93;;;3.70;;
30307;SDS011;17114;52.314;8.910;2024-02-16T12:06:59;10.00;;;3.70;;
30307;SDS011;17114;52.314;8.910;2024-02-16T12:09:31;9.10;;;3.50;;
30307;SDS011;17114;52.314;8.910;2024-02-16T12:12:02;6.60;;;3.30;;
30307;SDS011;17114;52.314;8.910;2024-02-16T12:14:32;11.52;;;3.20;;
30307;SDS011;17114;52.314;8.910;2024-02-16T12:16:59;9.25;;;3.67;;
30307;SDS011;17114;52.314;8.910;2024-02-16T12:19:26;7.78;;;3.08;;
30307;SDS011;17114;52.314;8.910;2024-02-16T12:21:54;10.10;;;3.72;;
30307;SDS011;17114;52.314;8.910;2024-02-16T12:24:23;8.65;;;2.85;;
30307;SDS011;17114;52.314;8.910;2024-02-16T12:26:51;8.07;;;3.45;;
30307;SDS011;17114;52.314;8.910;2024-02-16T12:29:18;9.07;;;3.28;;
30307;SDS011;17114;52.314;8.910;2024-02-16T12:31:45;8.48;;;4.00;;
30307;SDS011;17114;52.314;8.910;2024-02-16T12:34:14;9.45;;;4.20;;
30307;SDS011;17114;52.314;8.910;2024-02-16T12:36:41;11.45;;;3.38;;
30307;SDS011;17114;52.314;8.910;2024-02-16T12:39:13;11.27;;;3.78;;
30307;SDS011;17114;52.314;8.910;2024-02-16T12:41:42;10.73;;;4.38;;
30307;SDS011;17114;52.314;8.910;2024-02-16T12:44:10;12.25;;;4.75;;
30307;SDS011;17114;52.314;8.910;2024-02-16T12:46:38;9.68;;;3.70;;
30307;SDS011;17114;52.314;8.910;2024-02-16T12:49:06;9.13;;;3.90;;
30307;SDS011;17114;52.314;8.910;2024-02-16T12:51:34;8.82;;;3.65;;
30307;SDS011;17114;52.314;8.910;2024-02-16T12:54:01;8.85;;;4.25;;
30307;SDS011;17114;52.314;8.910;2024-02-16T12:56:31;8.85;;;3.88;;
30307;SDS011;17114;52.314;8.910;2024-02-16T12:58:58;10.10;;;4.00;;
30307;SDS011;17114;52.314;8.910;2024-02-16T13:01:27;8.23;;;3.72;;
30307;SDS011;17114;52.314;8.910;2024-02-16T13:03:55;9.13;;;4.15;;
30307;SDS011;17114;52.314;8.910;2024-02-16T13:06:22;8.48;;;4.28;;
30307;SDS011;17114;52.314;8.910;2024-02-16T13:08:54;8.80;;;4.70;;
30307;SDS011;17114;52.314;8.910;2024-02-16T13:11:21;13.25;;;4.72;;
30307;SDS011;17114;52.314;8.910;2024-02-16T13:13:49;13.45;;;4.88;;
30307;SDS011;17114;52.314;8.910;2024-02-16T13:16:18;9.30;;;5.38;;
30307;SDS011;17114;52.314;8.910;2024-02-16T13:18:47;9.25;;;5.18;;
30307;SDS011;17114;52.314;8.910;2024-02-16T13:21:14;11.98;;;5.25;;
30307;SDS011;17114;52.314;8.910;2024-02-16T13:23:42;9.40;;;5.00;;
30307;SDS011;17114;52.314;8.910;2024-02-16T13:26:09;11.15;;;5.15;;
30307;SDS011;17114;52.314;8.910;2024-02-16T13:28:37;8.40;;;5.30;;
30307;SDS011;17114;52.314;8.910;2024-02-16T13:31:04;12.80;;;5.30;;
30307;SDS011;17114;52.314;8.910;2024-02-16T13:33:31;13.52;;;5.68;;
30307;SDS011;17114;52.314;8.910;2024-02-16T13:35:58;12.13;;;5.90;;
30307;SDS011;17114;52.314;8.910;2024-02-16T13:38:25;13.52;;;6.95;;
30307;SDS011;17114;52.314;8.910;2024-02-16T13:40:52;14.45;;;6.05;;
30307;SDS011;17114;52.314;8.910;2024-02-16T13:43:20;13.60;;;6.55;;
30307;SDS011;17114;52.314;8.910;2024-02-16T13:45:48;10.73;;;5.80;;
30307;SDS011;17114;52.314;8.910;2024-02-16T13:48:17;17.30;;;7.13;;
30307;SDS011;17114;52.314;8.910;2024-02-16T13:50:45;10.82;;;7.13;;
30307;SDS011;17114;52.314;8.910;2024-02-16T13:53:15;11.55;;;7.25;;
30307;SDS011;17114;52.314;8.910;2024-02-16T13:55:47;16.45;;;8.85;;
30307;SDS011;17114;52.314;8.910;2024-02-16T13:58:14;12.98;;;8.63;;
30307;SDS011;17114;52.314;8.910;2024-02-16T14:00:42;20.35;;;8.50;;
30307;SDS011;17114;52.314;8.910;2024-02-16T14:03:10;13.40;;;8.40;;
30307;SDS011;17114;52.314;8.910;2024-02-16T14:05:40;13.52;;;8.32;;
30307;SDS011;17114;52.314;8.910;2024-02-16T14:08:08;16.65;;;8.77;;
30307;SDS011;17114;52.314;8.910;2024-02-16T14:10:37;18.50;;;9.77;;
30307;SDS011;17114;52.314;8.910;2024-02-16T14:13:04;16.90;;;9.57;;
30307;SDS011;17114;52.314;8.910;2024-02-16T14:15:32;13.18;;;8.88;;
30307;SDS011;17114;52.314;8.910;2024-02-16T14:17:59;17.88;;;9.98;;
30307;SDS011;17114;52.314;8.910;2024-02-16T14:20:37;16.63;;;9.57;;
30307;SDS011;17114;52.314;8.910;2024-02-16T14:23:04;16.02;;;10.50;;
30307;SDS011;17114;52.314;8.910;2024-02-16T14:25:34;19.15;;;10.20;;
30307;SDS011;17114;52.314;8.910;2024-02-16T14:28:04;20.88;;;10.55;;
30307;SDS011;17114;52.314;8.910;2024-02-16T14:30:32;15.07;;;9.90;;
30307;SDS011;17114;52.314;8.910;2024-02-16T14:33:00;24.45;;;11.00;;
30307;SDS011;17114;52.314;8.910;2024-02-16T14:35:31;18.75;;;11.07;;
30307;SDS011;17114;52.314;8.910;2024-02-16T14:38:03;15.23;;;10.02;;
30307;SDS011;17114;52.314;8.910;2024-02-16T14:40:33;18.55;;;10.50;;
30307;SDS011;17114;52.314;8.910;2024-02-16T14:43:01;14.60;;;9.85;;
30307;SDS011;17114;52.314;8.910;2024-02-16T14:45:28;14.43;;;10.15;;
30307;SDS011;17114;52.314;8.910;2024-02-16T14:47:55;14.93;;;9.95;;
30307;SDS011;17114;52.314;8.910;2024-02-16T14:50:24;15.05;;;9.77;;
30307;SDS011;17114;52.314;8.910;2024-02-16T14:52:51;20.08;;;10.40;;
30307;SDS011;17114;52.314;8.910;2024-02-16T14:55:18;25.33;;;10.85;;
30307;SDS011;17114;52.314;8.910;2024-02-16T14:57:45;15.95;;;9.00;;
30307;SDS011;17114;52.314;8.910;2024-02-16T15:00:12;14.30;;;8.45;;
30307;SDS011;17114;52.314;8.910;2024-02-16T15:02:40;19.33;;;8.57;;
30307;SDS011;17114;52.314;8.910;2024-02-16T15:05:09;13.63;;;7.70;;
30307;SDS011;17114;52.314;8.910;2024-02-16T15:07:36;15.43;;;8.48;;
30307;SDS011;17114;52.314;8.910;2024-02-16T15:10:04;13.60;;;8.20;;
30307;SDS011;17114;52.314;8.910;2024-02-16T15:12:32;14.52;;;9.07;;
30307;SDS011;17114;52.314;8.910;2024-02-16T15:14:59;18.25;;;8.70;;
30307;SDS011;17114;52.314;8.910;2024-02-16T15:17:27;16.55;;;8.07;;
30307;SDS011;17114;52.314;8.910;2024-02-16T15:19:54;15.82;;;8.63;;
30307;SDS011;17114;52.314;8.910;2024-02-16T15:22:22;16.75;;;8.88;;
30307;SDS011;17114;52.314;8.910;2024-02-16T15:24:51;13.45;;;7.88;;
30307;SDS011;17114;52.314;8.910;2024-02-16T15:27:18;11.98;;;7.80;;
30307;SDS011;17114;52.314;8.910;2024-02-16T15:29:46;14.15;;;7.47;;
30307;SDS011;17114;52.314;8.910;2024-02-16T15:32:13;12.32;;;7.68;;
30307;SDS011;17114;52.314;8.910;2024-02-16T15:34:40;16.45;;;7.63;;
30307;SDS011;17114;52.314;8.910;2024-02-16T15:37:11;13.15;;;7.07;;
30307;SDS011;17114;52.314;8.910;2024-02-16T15:39:39;12.45;;;7.32;;
30307;SDS011;17114;52.314;8.910;2024-02-16T15:42:06;12.75;;;7.30;;
30307;SDS011;17114;52.314;8.910;2024-02-16T15:44:33;13.95;;;6.88;;
30307;SDS011;17114;52.314;8.910;2024-02-16T15:47:01;10.27;;;6.78;;
30307;SDS011;17114;52.314;8.910;2024-02-16T15:49:29;11.27;;;6.90;;
30307;SDS011;17114;52.314;8.910;2024-02-16T15:51:56;8.93;;;6.60;;
30307;SDS011;17114;52.314;8.910;2024-02-16T15:54:23;15.98;;;7.30;;
30307;SDS011;17114;52.314;8.910;2024-02-16T15:56:52;12.60;;;7.25;;
30307;SDS011;17114;52.314;8.910;2024-02-16T15:59:24;13.52;;;7.15;;
30307;SDS011;17114;52.314;8.910;2024-02-16T16:01:51;11.75;;;7.35;;
30307;SDS011;17114;52.314;8.910;2024-02-16T16:04:19;12.20;;;7.05;;
30307;SDS011;17114;52.314;8.910;2024-02-16T16:06:46;13.75;;;6.15;;
30307;SDS011;17114;52.314;8.910;2024-02-16T16:09:13;12.27;;;6.45;;
30307;SDS011;17114;52.314;8.910;2024-02-16T16:11:42;10.27;;;5.90;;
30307;SDS011;17114;52.314;8.910;2024-02-16T16:14:11;11.00;;;6.00;;
30307;SDS011;17114;52.314;8.910;2024-02-16T16:16:38;8.40;;;5.63;;
30307;SDS011;17114;52.314;8.910;2024-02-16T16:19:05;7.07;;;5.32;;
30307;SDS011;17114;52.314;8.910;2024-02-16T16:21:34;5.82;;;4.82;;
30307;SDS011;17114;52.314;8.910;2024-02-16T16:24:01;6.93;;;4.95;;
30307;SDS011;17114;52.314;8.910;2024-02-16T16:26:29;8.65;;;5.45;;
30307;SDS011;17114;52.314;8.910;2024-02-16T16:28:57;8.10;;;5.85;;
30307;SDS011;17114;52.314;8.910;2024-02-16T16:31:24;11.60;;;6.15;;
30307;SDS011;17114;52.314;8.910;2024-02-16T16:33:51;7.80;;;5.90;;
30307;SDS011;17114;52.314;8.910;2024-02-16T16:36:18;8.55;;;5.63;;
30307;SDS011;17114;52.314;8.910;2024-02-16T16:38:47;8.13;;;6.10;;
30307;SDS011;17114;52.314;8.910;2024-02-16T16:41:15;11.73;;;6.60;;
30307;SDS011;17114;52.314;8.910;2024-02-16T16:43:42;10.18;;;6.75;;
30307;SDS011;17114;52.314;8.910;2024-02-16T16:46:09;10.90;;;6.60;;
30307;SDS011;17114;52.314;8.910;2024-02-16T16:48:36;9.10;;;6.43;;
30307;SDS011;17114;52.314;8.910;2024-02-16T16:51:04;8.77;;;6.72;;
30307;SDS011;17114;52.314;8.910;2024-02-16T16:53:31;9.73;;;6.88;;
30307;SDS011;17114;52.314;8.910;2024-02-16T16:55:58;9.05;;;7.13;;
30307;SDS011;17114;52.314;8.910;2024-02-16T16:58:27;9.10;;;6.40;;
30307;SDS011;17114;52.314;8.910;2024-02-16T17:00:54;11.05;;;6.35;;
30307;SDS011;17114;52.314;8.910;2024-02-16T17:03:21;10.95;;;7.10;;
30307;SDS011;17114;52.314;8.910;2024-02-16T17:05:49;8.57;;;6.68;;
30307;SDS011;17114;52.314;8.910;2024-02-16T17:08:16;9.30;;;6.70;;
30307;SDS011;17114;52.314;8.910;2024-02-16T17:10:43;9.63;;;6.95;;
30307;SDS011;17114;52.314;8.910;2024-02-16T17:13:10;10.65;;;6.72;;
30307;SDS011;17114;52.314;8.910;2024-02-16T17:15:37;9.40;;;6.70;;
30307;SDS011;17114;52.314;8.910;2024-02-16T17:18:04;10.88;;;7.05;;
30307;SDS011;17114;52.314;8.910;2024-02-16T17:20:31;10.55;;;7.22;;
30307;SDS011;17114;52.314;8.910;2024-02-16T17:23:01;13.50;;;7.82;;
30307;SDS011;17114;52.314;8.910;2024-02-16T17:25:29;11.32;;;8.65;;
30307;SDS011;17114;52.314;8.910;2024-02-16T17:28:00;12.48;;;9.30;;
30307;SDS011;17114;52.314;8.910;2024-02-16T17:30:29;14.43;;;9.75;;
30307;SDS011;17114;52.314;8.910;2024-02-16T17:33:00;14.65;;;10.52;;
30307;SDS011;17114;52.314;8.910;2024-02-16T17:35:28;17.55;;;10.60;;
30307;SDS011;17114;52.314;8.910;2024-02-16T17:37:55;12.25;;;10.07;;
30307;SDS011;17114;52.314;8.910;2024-02-16T17:40:23;22.77;;;10.48;;
30307;SDS011;17114;52.314;8.910;2024-02-16T17:42:50;14.20;;;9.63;;
30307;SDS011;17114;52.314;8.910;2024-02-16T17:45:18;12.32;;;9.90;;
30307;SDS011;17114;52.314;8.910;2024-02-16T17:47:45;15.45;;;9.70;;
30307;SDS011;17114;52.314;8.910;2024-02-16T17:50:12;15.02;;;10.07;;
30307;SDS011;17114;52.314;8.910;2024-02-16T17:52:39;13.32;;;10.88;;
30307;SDS011;17114;52.314;8.910;2024-02-16T17:55:06;16.23;;;11.15;;
30307;SDS011;17114;52.314;8.910;2024-02-16T17:57:34;14.88;;;11.82;;
30307;SDS011;17114;52.314;8.910;2024-02-16T18:00:02;15.98;;;12.00;;
30307;SDS011;17114;52.314;8.910;2024-02-16T18:02:32;16.38;;;11.48;;
30307;SDS011;17114;52.314;8.910;2024-02-16T18:05:09;14.45;;;11.68;;
30307;SDS011;17114;52.314;8.910;2024-02-16T18:07:37;14.63;;;11.05;;
30307;SDS011;17114;52.314;8.910;2024-02-16T18:10:05;17.70;;;12.00;;
30307;SDS011;17114;52.314;8.910;2024-02-16T18:12:34;19.30;;;12.20;;
30307;SDS011;17114;52.314;8.910;2024-02-16T18:15:03;13.15;;;10.60;;
30307;SDS011;17114;52.314;8.910;2024-02-16T18:17:31;12.77;;;10.40;;
30307;SDS011;17114;52.314;8.910;2024-02-16T18:19:59;13.07;;;10.52;;
30307;SDS011;17114;52.314;8.910;2024-02-16T18:22:27;11.98;;;9.90;;
30307;SDS011;17114;52.314;8.910;2024-02-16T18:24:54;13.05;;;10.05;;
30307;SDS011;17114;52.314;8.910;2024-02-16T18:27:21;10.80;;;8.82;;
30307;SDS011;17114;52.314;8.910;2024-02-16T18:29:49;10.50;;;8.90;;
30307;SDS011;17114;52.314;8.910;2024-02-16T18:32:16;12.98;;;9.45;;
30307;SDS011;17114;52.314;8.910;2024-02-16T18:34:44;11.30;;;9.40;;
30307;SDS011;17114;52.314;8.910;2024-02-16T18:37:12;13.90;;;9.90;;
30307;SDS011;17114;52.314;8.910;2024-02-16T18:39:40;12.48;;;9.40;;
30307;SDS011;17114;52.314;8.910;2024-02-16T18:42:08;15.75;;;10.75;;
30307;SDS011;17114;52.314;8.910;2024-02-16T18:44:36;14.18;;;10.50;;
30307;SDS011;17114;52.314;8.910;2024-02-16T18:47:06;13.05;;;10.10;;
30307;SDS011;17114;52.314;8.910;2024-02-16T18:49:36;15.82;;;10.80;;
30307;SDS011;17114;52.314;8.910;2024-02-16T18:52:04;13.68;;;10.68;;
30307;SDS011;17114;52.314;8.910;2024-02-16T18:54:35;13.63;;;10.32;;
30307;SDS011;17114;52.314;8.910;2024-02-16T18:57:03;12.00;;;9.38;;
30307;SDS011;17114;52.314;8.910;2024-02-16T18:59:33;12.52;;;9.55;;
30307;SDS011;17114;52.314;8.910;2024-02-16T19:02:01;14.23;;;10.55;;
30307;SDS011;17114;52.314;8.910;2024-02-16T19:04:28;12.55;;;9.05;;
30307;SDS011;17114;52.314;8.910;2024-02-16T19:06:56;10.35;;;7.85;;
30307;SDS011;17114;52.314;8.910;2024-02-16T19:09:36;11.05;;;8.23;;
30307;SDS011;17114;52.314;8.910;2024-02-16T19:12:03;10.98;;;8.60;;
30307;SDS011;17114;52.314;8.910;2024-02-16T19:14:31;10.65;;;8.20;;
30307;SDS011;17114;52.314;8.910;2024-02-16T19:16:58;12.43;;;8.80;;
30307;SDS011;17114;52.314;8.910;2024-02-16T19:19:26;11.00;;;8.43;;
30307;SDS011;17114;52.314;8.910;2024-02-16T19:21:57;11.38;;;8.85;;
30307;SDS011;17114;52.314;8.910;2024-02-16T19:24:25;14.07;;;8.35;;
30307;SDS011;17114;52.314;8.910;2024-02-16T19:27:04;11.45;;;8.70;;
30307;SDS011;17114;52.314;8.910;2024-02-16T19:29:33;11.15;;;8.82;;
30307;SDS011;17114;52.314;8.910;2024-02-16T19:32:00;12.25;;;8.90;;
30307;SDS011;17114;52.314;8.910;2024-02-16T19:34:27;11.65;;;8.52;;
30307;SDS011;17114;52.314;8.910;2024-02-16T19:36:55;12.27;;;9.30;;
30307;SDS011;17114;52.314;8.910;2024-02-16T19:39:22;13.13;;;9.00;;
30307;SDS011;17114;52.314;8.910;2024-02-16T19:41:49;15.05;;;9.90;;
30307;SDS011;17114;52.314;8.910;2024-02-16T19:44:17;16.30;;;10.38;;
30307;SDS011;17114;52.314;8.910;2024-02-16T19:46:48;14.20;;;10.63;;
30307;SDS011;17114;52.314;8.910;2024-02-16T19:49:15;13.60;;;9.85;;
30307;SDS011;17114;52.314;8.910;2024-02-16T19:51:42;16.70;;;11.27;;
30307;SDS011;17114;52.314;8.910;2024-02-16T19:54:09;15.77;;;10.95;;
30307;SDS011;17114;52.314;8.910;2024-02-16T19:56:36;16.65;;;11.60;;
30307;SDS011;17114;52.314;8.910;2024-02-16T19:59:04;16.27;;;11.10;;
30307;SDS011;17114;52.314;8.910;2024-02-16T20:01:31;16.00;;;11.57;;
30307;SDS011;17114;52.314;8.910;2024-02-16T20:03:58;16.48;;;10.98;;
30307;SDS011;17114;52.314;8.910;2024-02-16T20:06:26;17.05;;;11.18;;
30307;SDS011;17114;52.314;8.910;2024-02-16T20:08:55;14.73;;;9.98;;
30307;SDS011;17114;52.314;8.910;2024-02-16T20:11:22;13.30;;;9.30;;
30307;SDS011;17114;52.314;8.910;2024-02-16T20:13:50;13.95;;;9.65;;
30307;SDS011;17114;52.314;8.910;2024-02-16T20:16:21;12.60;;;9.70;;
30307;SDS011;17114;52.314;8.910;2024-02-16T20:18:48;11.73;;;9.32;;
30307;SDS011;17114;52.314;8.910;2024-02-16T20:21:16;12.80;;;9.38;;
30307;SDS011;17114;52.314;8.910;2024-02-16T20:23:45;12.00;;;8.88;;
30307;SDS011;17114;52.314;8.910;2024-02-16T20:26:13;12.65;;;8.88;;
30307;SDS011;17114;52.314;8.910;2024-02-16T20:28:47;12.85;;;8.98;;
30307;SDS011;17114;52.314;8.910;2024-02-16T20:31:14;10.93;;;9.05;;
30307;SDS011;17114;52.314;8.910;2024-02-16T20:33:41;10.93;;;8.35;;
30307;SDS011;17114;52.314;8.910;2024-02-16T20:36:09;11.20;;;9.07;;
30307;SDS011;17114;52.314;8.910;2024-02-16T20:38:36;12.85;;;9.25;;
30307;SDS011;17114;52.314;8.910;2024-02-16T20:41:05;11.63;;;8.52;;
30307;SDS011;17114;52.314;8.910;2024-02-16T20:43:32;12.48;;;8.40;;
30307;SDS011;17114;52.314;8.910;2024-02-16T20:46:01;13.02;;;8.88;;
30307;SDS011;17114;52.314;8.910;2024-02-16T20:48:28;13.35;;;9.23;;
30307;SDS011;17114;52.314;8.910;2024-02-16T20:50:55;13.55;;;9.50;;
30307;SDS011;17114;52.314;8.910;2024-02-16T20:53:22;9.70;;;8.05;;
30307;SDS011;17114;52.314;8.910;2024-02-16T20:55:50;12.20;;;8.50;;
30307;SDS011;17114;52.314;8.910;2024-02-16T20:58:17;10.30;;;8.70;;
30307;SDS011;17114;52.314;8.910;2024-02-16T21:00:43;11.70;;;8.77;;
30307;SDS011;17114;52.314;8.910;2024-02-16T21:03:11;11.00;;;8.05;;
30307;SDS011;17114;52.314;8.910;2024-02-16T21:05:38;12.32;;;9.10;;
30307;SDS011;17114;52.314;8.910;2024-02-16T21:08:06;9.63;;;8.02;;
30307;SDS011;17114;52.314;8.910;2024-02-16T21:10:33;11.07;;;8.18;;
30307;SDS011;17114;52.314;8.910;2024-02-16T21:13:00;11.50;;;8.77;;
30307;SDS011;17114;52.314;8.910;2024-02-16T21:15:27;11.45;;;8.63;;
30307;SDS011;17114;52.314;8.910;2024-02-16T21:17:54;10.80;;;9.07;;
30307;SDS011;17114;52.314;8.910;2024-02-16T21:20:23;11.82;;;8.80;;
30307;SDS011;17114;52.314;8.910;2024-02-16T21:22:50;12.52;;;9.80;;
30307;SDS011;17114;52.314;8.910;2024-02-16T21:25:17;13.88;;;10.07;;
30307;SDS011;17114;52.314;8.910;2024-02-16T21:27:44;13.98;;;9.45;;
30307;SDS011;17114;52.314;8.910;2024-02-16T21:30:11;12.82;;;9.25;;
30307;SDS011;17114;52.314;8.910;2024-02-16T21:32:39;13.18;;;9.35;;
30307;SDS011;17114;52.314;8.910;2024-02-16T21:35:06;15.02;;;10.45;;
30307;SDS011;17114;52.314;8.910;2024-02-16T21:37:36;15.88;;;10.50;;
30307;SDS011;17114;52.314;8.910;2024-02-16T21:40:03;13.10;;;9.90;;
30307;SDS011;17114;52.314;8.910;2024-02-16T21:42:31;15.10;;;10.90;;
30307;SDS011;17114;52.314;8.910;2024-02-16T21:44:58;17.40;;;10.68;;
30307;SDS011;17114;52.314;8.910;2024-02-16T21:47:28;16.02;;;10.65;;
30307;SDS011;17114;52.314;8.910;2024-02-16T21:49:56;16.80;;;11.50;;
30307;SDS011;17114;52.314;8.910;2024-02-16T21:52:27;18.63;;;12.07;;
30307;SDS011;17114;52.314;8.910;2024-02-16T21:54:58;16.92;;;12.02;;
30307;SDS011;17114;52.314;8.910;2024-02-16T21:57:26;20.45;;;11.80;;
30307;SDS011;17114;52.314;8.910;2024-02-16T21:59:53;20.17;;;12.63;;
30307;SDS011;17114;52.314;8.910;2024-02-16T22:02:20;20.85;;;13.60;;
30307;SDS011;17114;52.314;8.910;2024-02-16T22:04:48;21.30;;;12.90;;
30307;SDS011;17114;52.314;8.910;2024-02-16T22:07:16;21.35;;;13.77;;
30307;SDS011;17114;52.314;8.910;2024-02-16T22:09:44;21.10;;;12.77;;
30307;SDS011;17114;52.314;8.910;2024-02-16T22:12:12;21.27;;;13.23;;
30307;SDS011;17114;52.314;8.910;2024-02-16T22:14:39;21.63;;;14.65;;
30307;SDS011;17114;52.314;8.910;2024-02-16T22:17:07;23.98;;;14.25;;
30307;SDS011;17114;52.314;8.910;2024-02-16T22:19:34;22.80;;;13.85;;
30307;SDS011;17114;52.314;8.910;2024-02-16T22:22:02;27.27;;;15.13;;
30307;SDS011;17114;52.314;8.910;2024-02-16T22:24:30;26.88;;;16.25;;
30307;SDS011;17114;52.314;8.910;2024-02-16T22:26:58;26.35;;;15.32;;
30307;SDS011;17114;52.314;8.910;2024-02-16T22:29:25;25.25;;;14.98;;
30307;SDS011;17114;52.314;8.910;2024-02-16T22:31:53;25.73;;;15.52;;
30307;SDS011;17114;52.314;8.910;2024-02-16T22:34:33;24.73;;;15.27;;
30307;SDS011;17114;52.314;8.910;2024-02-16T22:37:01;24.40;;;14.90;;
30307;SDS011;17114;52.314;8.910;2024-02-16T22:39:28;27.42;;;16.15;;
30307;SDS011;17114;52.314;8.910;2024-02-16T22:42:02;22.95;;;14.07;;
30307;SDS011;17114;52.314;8.910;2024-02-16T22:44:29;27.13;;;15.90;;
30307;SDS011;17114;52.314;8.910;2024-02-16T22:46:56;25.27;;;15.82;;
30307;SDS011;17114;52.314;8.910;2024-02-16T22:49:24;23.77;;;14.63;;
30307;SDS011;17114;52.314;8.910;2024-02-16T22:51:56;26.02;;;15.77;;
30307;SDS011;17114;52.314;8.910;2024-02-16T22:54:23;25.98;;;15.52;;
30307;SDS011;17114;52.314;8.910;2024-02-16T22:56:50;26.95;;;15.30;;
30307;SDS011;17114;52.314;8.910;2024-02-16T22:59:22;24.15;;;15.15;;
30307;SDS011;17114;52.314;8.910;2024-02-16T23:01:52;27.05;;;16.55;;
30307;SDS011;17114;52.314;8.910;2024-02-16T23:04:19;24.70;;;16.25;;
30307;SDS011;17114;52.314;8.910;2024-02-16T23:06:50;25.25;;;16.25;;
30307;SDS011;17114;52.314;8.910;2024-02-16T23:09:19;28.23;;;17.50;;
30307;SDS011;17114;52.314;8.910;2024-02-16T23:11:52;26.42;;;16.42;;
30307;SDS011;17114;52.314;8.910;2024-02-16T23:14:25;27.88;;;16.83;;
30307;SDS011;17114;52.314;8.910;2024-02-16T23:16:53;28.67;;;16.42;;
30307;SDS011;17114;52.314;8.910;2024-02-16T23:19:21;28.88;;;17.38;;
30307;SDS011;17114;52.314;8.910;2024-02-16T23:21:48;31.20;;;17.58;;
30307;SDS011;17114;52.314;8.910;2024-02-16T23:24:15;28.65;;;17.73;;
30307;SDS011;17114;52.314;8.910;2024-02-16T23:26:42;28.80;;;16.83;;
30307;SDS011;17114;52.314;8.910;2024-02-16T23:29:10;28.70;;;17.25;;
30307;SDS011;17114;52.314;8.910;2024-02-16T23:31:37;28.45;;;17.35;;
30307;SDS011;17114;52.314;8.910;2024-02-16T23:34:04;28.55;;;17.52;;
30307;SDS011;17114;52.314;8.910;2024-02-16T23:36:32;26.88;;;17.27;;
30307;SDS011;17114;52.314;8.910;2024-02-16T23:38:59;31.25;;;17.98;;
30307;SDS011;17114;52.314;8.910;2024-02-16T23:41:26;32.85;;;18.73;;
30307;SDS011;17114;52.314;8.910;2024-02-16T23:43:53;30.60;;;18.25;;
30307;SDS011;17114;52.314;8.910;2024-02-16T23:46:22;29.80;;;19.25;;
30307;SDS011;17114;52.314;8.910;2024-02-16T23:48:49;29.70;;;17.90;;
30307;SDS011;17114;52.314;8.910;2024-02-16T23:51:16;31.83;;;18.55;;
30307;SDS011;17114;52.314;8.910;2024-02-16T23:53:44;31.83;;;18.40;;
30307;SDS011;17114;52.314;8.910;2024-02-16T23:56:12;33.13;;;19.40;;
30307;SDS011;17114;52.314;8.910;2024-02-16T23:58:39;32.22;;;20.42;;
